createdAt,value
2022-08-22T00:01:53.201Z,99.90
2022-08-22T00:02:46.055Z,99.90
2022-08-22T00:03:02.490Z,92.30
2022-08-22T00:04:45.215Z,99.90
2022-08-22T00:07:43.615Z,99.90
2022-08-22T00:10:25.039Z,99.90
2022-08-22T00:13:04.605Z,99.90
2022-08-22T00:15:43.122Z,99.90
2022-08-22T00:18:33.969Z,99.90
2022-08-22T00:21:11.366Z,99.90
2022-08-22T00:23:51.125Z,99.90
2022-08-22T00:26:45.067Z,99.90
2022-08-22T00:29:17.722Z,99.90
2022-08-22T00:31:50.982Z,99.90
2022-08-22T00:34:36.377Z,99.90
2022-08-22T00:37:28.367Z,99.90
2022-08-22T00:40:23.301Z,99.90
2022-08-22T00:42:50.312Z,99.90
2022-08-22T00:45:35.458Z,99.90
2022-08-22T00:48:32.886Z,99.90
2022-08-22T00:51:14.994Z,99.90
2022-08-22T00:54:29.397Z,99.90
2022-08-22T00:57:11.452Z,99.90
2022-08-22T01:00:01.231Z,99.90
2022-08-22T01:02:37.144Z,99.90
2022-08-22T01:05:28.405Z,99.90
2022-08-22T01:07:58.534Z,99.90
2022-08-22T01:10:56.279Z,99.90
2022-08-22T01:13:37.782Z,99.90
2022-08-22T01:16:10.569Z,99.90
2022-08-22T01:19:06.458Z,99.90
2022-08-22T01:21:51.697Z,99.90
2022-08-22T01:25:14.995Z,99.90
2022-08-22T01:28:20.427Z,99.90
2022-08-22T01:31:02.195Z,99.90
2022-08-22T01:33:40.991Z,99.90
2022-08-22T01:36:40.577Z,99.90
2022-08-22T01:39:07.487Z,99.90
2022-08-22T01:41:59.645Z,99.90
2022-08-22T01:44:58.027Z,99.90
2022-08-22T01:47:37.368Z,99.90
2022-08-22T01:50:23.748Z,99.90
2022-08-22T01:53:14.686Z,99.90
2022-08-22T01:56:01.433Z,99.90
2022-08-22T01:58:31.997Z,99.90
2022-08-22T02:01:02.110Z,99.90
2022-08-22T02:03:37.430Z,99.90
2022-08-22T02:06:17.505Z,99.90
2022-08-22T02:09:09.132Z,99.90
2022-08-22T02:12:21.777Z,99.90
2022-08-22T02:15:08.021Z,99.90
2022-08-22T02:18:01.075Z,99.90
2022-08-22T02:20:55.612Z,99.90
2022-08-22T02:23:44.107Z,99.90
2022-08-22T02:26:35.576Z,99.90
2022-08-22T02:29:21.309Z,99.90
2022-08-22T02:32:05.416Z,99.90
2022-08-22T02:34:32.377Z,99.90
2022-08-22T02:37:02.676Z,99.90
2022-08-22T02:39:57.241Z,99.90
2022-08-22T02:42:30.165Z,99.90
2022-08-22T02:45:15.810Z,99.90
2022-08-22T02:47:52.852Z,99.90
2022-08-22T02:50:31.840Z,99.90
2022-08-22T02:53:21.288Z,99.90
2022-08-22T02:55:58.004Z,99.90
2022-08-22T02:58:29.508Z,99.90
2022-08-22T03:00:59.644Z,99.90
2022-08-22T03:03:30.105Z,99.90
2022-08-22T03:06:07.747Z,99.90
2022-08-22T03:08:39.212Z,99.90
2022-08-22T03:11:27.339Z,99.90
2022-08-22T03:14:09.652Z,99.90
2022-08-22T03:16:44.786Z,99.90
2022-08-22T03:19:44.127Z,99.90
2022-08-22T03:22:54.718Z,99.90
2022-08-22T03:25:32.435Z,99.90
2022-08-22T03:28:06.615Z,99.90
2022-08-22T03:30:36.866Z,99.90
2022-08-22T03:33:23.801Z,99.90
2022-08-22T03:36:24.749Z,99.90
2022-08-22T03:39:18.532Z,99.90
2022-08-22T03:42:41.059Z,99.90
2022-08-22T03:45:45.408Z,99.90
2022-08-22T03:48:30.470Z,99.90
2022-08-22T03:51:28.124Z,99.90
2022-08-22T03:54:22.177Z,99.90
2022-08-22T03:57:06.538Z,99.90
2022-08-22T03:59:47.575Z,99.90
2022-08-22T04:02:43.481Z,99.90
2022-08-22T04:05:32.129Z,99.90
2022-08-22T04:08:18.229Z,99.90
2022-08-22T04:11:19.168Z,99.90
2022-08-22T04:14:11.048Z,99.90
2022-08-22T04:16:53.144Z,99.90
2022-08-22T04:19:45.512Z,99.90
2022-08-22T04:22:21.419Z,99.90
2022-08-22T04:25:16.878Z,99.90
2022-08-22T04:28:03.470Z,99.90
2022-08-22T04:30:35.539Z,99.90
2022-08-22T04:33:14.472Z,99.90
2022-08-22T04:36:01.296Z,99.90
2022-08-22T04:38:37.259Z,99.90
2022-08-22T04:41:13.788Z,99.90
2022-08-22T04:44:22.725Z,99.90
2022-08-22T04:47:04.880Z,99.90
2022-08-22T04:49:46.999Z,99.90
2022-08-22T04:52:29.590Z,99.90
2022-08-22T04:55:15.674Z,99.90
2022-08-22T04:58:01.921Z,99.90
2022-08-22T05:00:56.812Z,99.90
2022-08-22T05:03:26.920Z,99.90
2022-08-22T05:05:55.802Z,99.90
2022-08-22T05:08:27.245Z,99.90
2022-08-22T05:10:55.186Z,99.90
2022-08-22T05:13:28.915Z,99.90
2022-08-22T05:16:03.420Z,99.90
2022-08-22T05:18:36.609Z,99.90
2022-08-22T05:21:07.541Z,99.90
2022-08-22T05:23:48.469Z,99.90
2022-08-22T05:26:17.295Z,99.90
2022-08-22T05:28:52.953Z,99.90
2022-08-22T05:31:32.113Z,99.90
2022-08-22T05:34:11.386Z,99.90
2022-08-22T05:36:46.798Z,99.90
2022-08-22T05:39:17.859Z,99.90
2022-08-22T05:41:46.038Z,99.90
2022-08-22T05:44:24.356Z,99.90
2022-08-22T05:47:00.157Z,99.90
2022-08-22T05:49:45.239Z,99.90
2022-08-22T05:52:34.803Z,99.90
2022-08-22T05:55:05.454Z,99.90
2022-08-22T05:57:38.314Z,97.70
2022-08-22T06:00:13.215Z,93.70
2022-08-22T06:03:00.661Z,91.00
2022-08-22T06:05:37.899Z,88.70
2022-08-22T06:08:30.112Z,85.70
2022-08-22T06:11:03.176Z,81.80
2022-08-22T06:13:41.453Z,78.70
2022-08-22T06:16:23.760Z,76.60
2022-08-22T06:18:52.543Z,73.70
2022-08-22T06:21:39.398Z,72.50
2022-08-22T06:24:13.390Z,71.00
2022-08-22T06:26:48.569Z,69.70
2022-08-22T06:29:29.450Z,68.40
2022-08-22T06:31:57.913Z,68.30
2022-08-22T06:34:29.540Z,66.80
2022-08-22T06:36:58.703Z,64.60
2022-08-22T06:39:35.089Z,64.40
2022-08-22T06:42:05.007Z,62.80
2022-08-22T06:44:57.965Z,63.40
2022-08-22T06:47:33.300Z,64.50
2022-08-22T06:50:06.262Z,65.70
2022-08-22T06:53:01.613Z,66.30
2022-08-22T06:55:30.463Z,66.10
2022-08-22T06:58:03.263Z,65.60
2022-08-22T07:00:33.417Z,65.50
2022-08-22T07:03:25.633Z,64.20
2022-08-22T07:05:55.865Z,64.20
2022-08-22T07:08:24.808Z,63.40
2022-08-22T07:11:13.158Z,62.50
2022-08-22T07:13:45.700Z,61.60
2022-08-22T07:16:13.189Z,62.80
2022-08-22T07:18:50.911Z,61.50
2022-08-22T07:21:42.854Z,60.90
2022-08-22T07:24:14.210Z,59.60
2022-08-22T07:27:12.904Z,59.80
2022-08-22T07:29:54.768Z,60.40
2022-08-22T07:32:29.058Z,60.80
2022-08-22T07:35:15.908Z,61.50
2022-08-22T07:38:01.749Z,59.50
2022-08-22T07:40:38.801Z,60.80
2022-08-22T07:43:18.972Z,61.30
2022-08-22T07:45:58.632Z,63.00
2022-08-22T07:48:59.310Z,62.00
2022-08-22T07:51:46.624Z,61.00
2022-08-22T07:54:17.172Z,60.90
2022-08-22T07:56:53.637Z,60.00
2022-08-22T07:59:22.321Z,60.70
2022-08-22T08:01:53.649Z,65.70
2022-08-22T08:04:27.303Z,62.70
2022-08-22T08:06:57.914Z,61.20
2022-08-22T08:09:35.516Z,64.10
2022-08-22T08:12:05.930Z,63.70
2022-08-22T08:14:36.674Z,67.40
2022-08-22T08:17:10.730Z,64.60
2022-08-22T08:19:41.549Z,65.20
2022-08-22T08:22:15.196Z,63.70
2022-08-22T08:24:45.378Z,60.90
2022-08-22T08:27:39.622Z,63.50
2022-08-22T08:30:43.421Z,63.20
2022-08-22T08:33:26.080Z,61.80
2022-08-22T08:36:25.180Z,64.20
2022-08-22T08:39:10.225Z,62.30
2022-08-22T08:42:11.398Z,62.00
2022-08-22T08:44:53.996Z,63.20
2022-08-22T08:47:39.878Z,60.90
2022-08-22T08:50:25.926Z,61.90
2022-08-22T08:53:13.267Z,60.70
2022-08-22T08:56:19.463Z,60.60
2022-08-22T08:59:03.736Z,63.30
2022-08-22T09:02:04.563Z,59.40
2022-08-22T09:05:01.427Z,58.50
2022-08-22T09:07:46.270Z,59.00
2022-08-22T09:10:30.284Z,60.90
2022-08-22T09:13:11.661Z,59.60
2022-08-22T09:16:04.699Z,61.30
2022-08-22T09:18:41.908Z,61.10
2022-08-22T09:21:32.908Z,59.10
2022-08-22T09:23:59.824Z,58.70
2022-08-22T09:26:34.500Z,59.50
2022-08-22T09:29:10.414Z,62.00
2022-08-22T09:32:03.620Z,64.30
2022-08-22T09:34:34.683Z,61.60
2022-08-22T09:37:26.024Z,60.80
2022-08-22T09:39:59.737Z,62.00
2022-08-22T09:42:33.811Z,62.70
2022-08-22T09:45:22.769Z,61.80
2022-08-22T09:48:26.759Z,59.20
2022-08-22T09:51:32.386Z,59.90
2022-08-22T09:54:10.219Z,58.40
2022-08-22T09:56:49.598Z,60.50
2022-08-22T09:59:44.952Z,59.40
2022-08-22T10:02:43.890Z,59.60
2022-08-22T10:05:43.926Z,62.00
2022-08-22T10:08:33.277Z,59.70
2022-08-22T10:11:34.333Z,59.20
2022-08-22T10:14:22.343Z,57.20
2022-08-22T10:17:08.336Z,60.20
2022-08-22T10:20:31.441Z,59.60
2022-08-22T10:23:14.832Z,61.80
2022-08-22T10:26:03.727Z,58.80
2022-08-22T10:28:55.206Z,59.90
2022-08-22T10:31:45.100Z,60.20
2022-08-22T10:34:35.254Z,58.30
2022-08-22T10:37:11.249Z,57.10
2022-08-22T10:39:48.826Z,56.10
2022-08-22T10:42:42.168Z,56.40
2022-08-22T10:45:35.967Z,57.70
2022-08-22T10:48:07.981Z,55.70
2022-08-22T10:50:44.974Z,56.50
2022-08-22T10:53:51.551Z,56.40
2022-08-22T10:56:45.597Z,56.60
2022-08-22T10:59:18.825Z,55.00
2022-08-22T11:02:28.526Z,53.80
2022-08-22T11:05:17.625Z,54.10
2022-08-22T11:08:04.354Z,52.40
2022-08-22T11:10:39.969Z,52.30
2022-08-22T11:13:35.894Z,53.90
2022-08-22T11:16:41.958Z,55.80
2022-08-22T11:19:15.973Z,58.30
2022-08-22T11:21:54.958Z,55.20
2022-08-22T11:24:34.856Z,53.60
2022-08-22T11:27:12.990Z,53.20
2022-08-22T11:30:18.500Z,53.70
2022-08-22T11:33:06.227Z,55.70
2022-08-22T11:35:51.162Z,55.10
2022-08-22T11:38:36.321Z,56.40
2022-08-22T11:41:12.762Z,55.10
2022-08-22T11:44:21.023Z,53.40
2022-08-22T11:46:51.236Z,55.20
2022-08-22T11:49:41.828Z,52.80
2022-08-22T11:52:28.282Z,55.20
2022-08-22T11:55:07.185Z,54.70
2022-08-22T11:57:47.505Z,56.10
2022-08-22T12:00:20.620Z,57.50
2022-08-22T12:03:16.514Z,56.10
2022-08-22T12:05:47.173Z,52.70
2022-08-22T12:08:24.761Z,52.70
2022-08-22T12:11:16.893Z,54.10
2022-08-22T12:14:02.358Z,54.10
2022-08-22T12:16:47.291Z,54.60
2022-08-22T12:19:35.398Z,55.70
2022-08-22T12:22:54.951Z,55.20
2022-08-22T12:25:34.838Z,56.20
2022-08-22T12:28:32.945Z,55.50
2022-08-22T12:31:56.499Z,54.60
2022-08-22T12:34:52.833Z,50.80
2022-08-22T12:37:52.273Z,52.10
2022-08-22T12:41:28.037Z,50.70
2022-08-22T12:44:17.146Z,48.70
2022-08-22T12:46:50.103Z,52.20
2022-08-22T12:49:31.415Z,51.00
2022-08-22T12:52:39.745Z,49.20
2022-08-22T12:55:16.244Z,49.20
2022-08-22T12:58:15.422Z,50.40
2022-08-22T13:00:47.510Z,50.20
2022-08-22T13:03:25.265Z,51.50
2022-08-22T13:05:59.896Z,50.70
2022-08-22T13:08:37.271Z,49.60
2022-08-22T13:11:22.971Z,50.40
2022-08-22T13:14:01.019Z,50.20
2022-08-22T13:16:37.788Z,50.40
2022-08-22T13:19:13.692Z,50.00
2022-08-22T13:21:48.781Z,50.10
2022-08-22T13:24:38.610Z,49.90
2022-08-22T13:27:15.140Z,50.90
2022-08-22T13:29:57.171Z,53.00
2022-08-22T13:32:38.323Z,53.90
2022-08-22T13:35:09.894Z,52.60
2022-08-22T13:37:43.453Z,52.60
2022-08-22T13:40:21.740Z,51.30
2022-08-22T13:42:55.215Z,52.00
2022-08-22T13:45:25.993Z,51.70
2022-08-22T13:47:58.053Z,50.50
2022-08-22T13:50:29.046Z,49.10
2022-08-22T13:53:09.544Z,50.20
2022-08-22T13:55:48.996Z,49.30
2022-08-22T13:58:32.144Z,49.30
2022-08-22T14:01:25.313Z,49.30
2022-08-22T14:04:35.895Z,50.30
2022-08-22T14:07:04.512Z,49.50
2022-08-22T14:09:56.121Z,50.10
2022-08-22T14:12:49.920Z,51.90
2022-08-22T14:15:23.593Z,51.80
2022-08-22T14:18:00.802Z,53.50
2022-08-22T14:20:33.423Z,54.00
2022-08-22T14:23:09.426Z,55.20
2022-08-22T14:25:41.903Z,55.80
2022-08-22T14:28:27.476Z,54.90
2022-08-22T14:31:13.524Z,54.10
2022-08-22T14:33:57.893Z,52.30
2022-08-22T14:36:35.903Z,52.00
2022-08-22T14:39:16.656Z,51.60
2022-08-22T14:42:04.182Z,52.20
2022-08-22T14:44:44.811Z,51.50
2022-08-22T14:47:55.115Z,51.40
2022-08-22T14:50:39.766Z,51.90
2022-08-22T14:53:13.020Z,53.30
2022-08-22T14:55:43.112Z,52.10
2022-08-22T14:58:26.561Z,51.10
2022-08-22T15:00:56.497Z,50.50
2022-08-22T15:03:29.446Z,51.50
2022-08-22T15:06:05.147Z,53.10
2022-08-22T15:08:37.622Z,52.80
2022-08-22T15:11:25.588Z,53.50
2022-08-22T15:14:27.047Z,53.10
2022-08-22T15:16:59.726Z,54.40
2022-08-22T15:19:36.227Z,54.20
2022-08-22T15:22:27.504Z,55.70
2022-08-22T15:25:40.989Z,56.20
2022-08-22T15:28:13.964Z,56.30
2022-08-22T15:30:44.586Z,56.30
2022-08-22T15:33:43.271Z,56.20
2022-08-22T15:36:24.759Z,58.10
2022-08-22T15:39:16.780Z,55.90
2022-08-22T15:41:48.470Z,55.50
2022-08-22T15:44:32.608Z,54.60
2022-08-22T15:47:00.267Z,54.00
2022-08-22T15:49:35.897Z,54.40
2022-08-22T15:52:11.164Z,53.60
2022-08-22T15:54:53.384Z,55.20
2022-08-22T15:57:41.796Z,54.40
2022-08-22T16:00:29.727Z,54.20
2022-08-22T16:03:26.563Z,54.70
2022-08-22T16:06:14.685Z,53.90
2022-08-22T16:08:51.199Z,54.50
2022-08-22T16:11:24.257Z,54.00
2022-08-22T16:14:19.164Z,54.40
2022-08-22T16:16:52.971Z,54.60
2022-08-22T16:19:25.515Z,55.00
2022-08-22T16:21:52.481Z,55.10
2022-08-22T16:24:21.735Z,55.90
2022-08-22T16:26:49.060Z,54.60
2022-08-22T16:29:41.212Z,55.20
2022-08-22T16:32:11.963Z,55.40
2022-08-22T16:34:46.076Z,54.80
2022-08-22T16:37:18.124Z,54.20
2022-08-22T16:40:01.907Z,56.30
2022-08-22T16:42:52.258Z,56.60
2022-08-22T16:45:21.992Z,55.90
2022-08-22T16:47:58.620Z,55.50
2022-08-22T16:50:28.356Z,54.50
2022-08-22T16:53:10.239Z,55.90
2022-08-22T16:56:04.815Z,55.20
2022-08-22T16:58:59.202Z,55.40
2022-08-22T17:02:01.191Z,56.10
2022-08-22T17:04:54.084Z,56.30
2022-08-22T17:07:28.769Z,56.80
2022-08-22T17:10:14.391Z,55.90
2022-08-22T17:12:52.951Z,56.10
2022-08-22T17:15:44.712Z,56.00
2022-08-22T17:18:24.553Z,56.30
2022-08-22T17:21:06.548Z,56.60
2022-08-22T17:24:00.073Z,56.60
2022-08-22T17:26:39.401Z,56.90
2022-08-22T17:29:20.726Z,57.00
2022-08-22T17:31:55.637Z,57.10
2022-08-22T17:35:00.570Z,56.70
2022-08-22T17:37:42.947Z,57.30
2022-08-22T17:40:16.189Z,58.20
2022-08-22T17:43:01.409Z,59.30
2022-08-22T17:46:12.950Z,60.30
2022-08-22T17:48:49.463Z,62.10
2022-08-22T17:51:30.408Z,64.80
2022-08-22T17:54:06.037Z,67.50
2022-08-22T17:57:05.412Z,67.90
2022-08-22T17:59:56.518Z,68.70
2022-08-22T18:02:29.732Z,67.70
2022-08-22T18:05:10.491Z,66.90
2022-08-22T18:07:46.458Z,68.30
2022-08-22T18:10:51.508Z,69.10
2022-08-22T18:13:53.943Z,68.80
2022-08-22T18:16:25.236Z,69.50
2022-08-22T18:18:57.613Z,70.20
2022-08-22T18:21:34.145Z,71.30
2022-08-22T18:24:11.586Z,71.80
2022-08-22T18:26:49.010Z,73.10
2022-08-22T18:29:23.876Z,74.10
2022-08-22T18:32:00.871Z,75.50
2022-08-22T18:34:54.249Z,76.30
2022-08-22T18:37:31.725Z,77.00
2022-08-22T18:40:28.034Z,77.20
2022-08-22T18:43:39.506Z,76.00
2022-08-22T18:46:28.850Z,75.70
2022-08-22T18:49:15.189Z,75.80
2022-08-22T18:51:43.531Z,74.90
2022-08-22T18:54:27.888Z,76.50
2022-08-22T18:57:05.751Z,76.80
2022-08-22T18:59:48.315Z,78.10
2022-08-22T19:02:34.008Z,81.00
2022-08-22T19:05:13.884Z,82.60
2022-08-22T19:08:00.141Z,82.60
2022-08-22T19:10:54.651Z,82.90
2022-08-22T19:13:50.842Z,82.60
2022-08-22T19:16:36.481Z,84.00
2022-08-22T19:19:17.852Z,84.00
2022-08-22T19:22:23.014Z,84.70
2022-08-22T19:25:26.394Z,84.10
2022-08-22T19:28:11.737Z,82.70
2022-08-22T19:31:05.752Z,83.60
2022-08-22T19:33:41.083Z,84.80
2022-08-22T19:36:29.460Z,85.30
2022-08-22T19:38:58.413Z,85.80
2022-08-22T19:41:40.336Z,85.80
2022-08-22T19:44:38.214Z,86.70
2022-08-22T19:47:17.560Z,88.10
2022-08-22T19:49:56.076Z,88.10
2022-08-22T19:52:30.281Z,88.70
2022-08-22T19:55:42.132Z,89.20
2022-08-22T19:58:50.809Z,89.50
2022-08-22T20:02:00.672Z,90.30
2022-08-22T20:04:48.504Z,90.70
2022-08-22T20:07:33.578Z,91.00
2022-08-22T20:10:34.440Z,91.30
2022-08-22T20:13:22.237Z,91.80
2022-08-22T20:16:13.691Z,92.00
2022-08-22T20:19:08.789Z,92.10
2022-08-22T20:21:42.419Z,92.40
2022-08-22T20:24:16.395Z,92.80
2022-08-22T20:27:09.964Z,93.40
2022-08-22T20:29:37.071Z,93.80
2022-08-22T20:32:06.278Z,94.20
2022-08-22T20:34:38.184Z,94.20
2022-08-22T20:37:29.343Z,94.20
2022-08-22T20:40:25.767Z,94.30
2022-08-22T20:43:22.895Z,94.80
2022-08-22T20:46:34.492Z,95.50
2022-08-22T20:49:02.911Z,95.30
2022-08-22T20:51:32.787Z,95.80
2022-08-22T20:54:01.414Z,96.30
2022-08-22T20:57:00.223Z,96.90
2022-08-22T20:59:32.218Z,97.70
2022-08-22T21:02:34.341Z,98.00
2022-08-22T21:05:24.111Z,98.30
2022-08-22T21:08:14.333Z,98.70
2022-08-22T21:11:01.276Z,98.90
2022-08-22T21:13:32.592Z,99.40
2022-08-22T21:16:02.804Z,99.70
2022-08-22T21:18:33.402Z,99.70
2022-08-22T21:21:17.631Z,99.90
2022-08-22T21:23:47.652Z,99.90
2022-08-22T21:26:28.759Z,99.90
2022-08-22T21:29:20.999Z,99.90
2022-08-22T21:31:54.619Z,99.90
2022-08-22T21:34:41.240Z,99.90
2022-08-22T21:37:15.014Z,99.90
2022-08-22T21:39:45.958Z,99.90
2022-08-22T21:42:31.827Z,99.90
2022-08-22T21:45:02.931Z,99.90
2022-08-22T21:47:31.277Z,99.90
2022-08-22T21:50:13.188Z,99.90
2022-08-22T21:52:44.805Z,99.90
2022-08-22T21:55:24.388Z,99.90
2022-08-22T21:58:09.779Z,99.90
2022-08-22T22:00:51.469Z,99.90
2022-08-22T22:03:22.144Z,99.90
2022-08-22T22:05:50.970Z,99.90
2022-08-22T22:08:18.215Z,99.90
2022-08-22T22:10:47.514Z,99.90
2022-08-22T22:13:14.698Z,99.90
2022-08-22T22:15:47.541Z,99.90
2022-08-22T22:18:17.661Z,99.90
2022-08-22T22:20:46.009Z,99.90
2022-08-22T22:23:13.048Z,99.90
2022-08-22T22:25:42.420Z,99.90
2022-08-22T22:28:40.129Z,99.90
2022-08-22T22:31:07.940Z,99.90
2022-08-22T22:33:38.555Z,99.90
2022-08-22T22:36:09.164Z,99.90
2022-08-22T22:38:38.123Z,99.90
2022-08-22T22:41:05.264Z,99.90
2022-08-22T22:43:33.119Z,99.90
2022-08-22T22:46:00.206Z,99.90
2022-08-22T22:48:27.792Z,99.90
2022-08-22T22:50:55.224Z,99.90
2022-08-22T22:53:38.061Z,99.90
2022-08-22T22:56:09.136Z,99.90
2022-08-22T22:58:37.638Z,99.90
2022-08-22T23:01:18.316Z,99.90
2022-08-22T23:03:46.301Z,99.90
2022-08-22T23:06:15.432Z,99.90
2022-08-22T23:08:43.007Z,99.90
2022-08-22T23:11:12.735Z,99.90
2022-08-22T23:13:41.716Z,99.90
2022-08-22T23:16:15.986Z,99.90
2022-08-22T23:18:43.555Z,99.90
2022-08-22T23:21:14.743Z,99.90
2022-08-22T23:23:42.207Z,99.90
2022-08-22T23:26:10.622Z,99.90
2022-08-22T23:28:37.935Z,99.90
2022-08-22T23:31:27.090Z,99.90
2022-08-22T23:33:55.157Z,99.90
2022-08-22T23:36:23.647Z,99.90
2022-08-22T23:38:52.163Z,99.90
2022-08-22T23:41:21.779Z,99.90
2022-08-22T23:43:52.356Z,99.90
2022-08-22T23:46:20.915Z,99.90
2022-08-22T23:48:48.361Z,99.90
2022-08-22T23:51:17.152Z,99.90
2022-08-22T23:53:50.235Z,99.90
2022-08-22T23:56:32.649Z,99.90
2022-08-22T23:59:01.670Z,99.90
